createdAt,value
2022-12-11T00:01:19.794Z,4.07
2022-12-11T00:03:48.721Z,4.35
2022-12-11T00:06:21.652Z,3.70
2022-12-11T00:08:52.686Z,3.93
2022-12-11T00:11:22.678Z,4.16
2022-12-11T00:13:51.406Z,4.37
2022-12-11T00:16:25.293Z,4.41
2022-12-11T00:18:55.618Z,4.41
2022-12-11T00:21:25.594Z,4.42
2022-12-11T00:23:54.354Z,4.30
2022-12-11T00:26:22.470Z,4.23
2022-12-11T00:28:55.556Z,4.34
2022-12-11T00:31:25.119Z,3.97
2022-12-11T00:33:53.713Z,4.20
2022-12-11T00:36:26.156Z,4.34
2022-12-11T00:38:55.386Z,4.41
2022-12-11T00:41:24.022Z,4.45
2022-12-11T00:43:52.504Z,4.30
2022-12-11T00:46:22.059Z,3.75
2022-12-11T00:48:51.175Z,4.50
2022-12-11T00:51:19.742Z,4.33
2022-12-11T00:53:49.696Z,4.75
2022-12-11T00:56:22.027Z,4.24
2022-12-11T00:58:51.181Z,4.49
2022-12-11T01:01:21.777Z,4.59
2022-12-11T01:03:50.727Z,4.78
2022-12-11T01:06:21.286Z,4.35
2022-12-11T01:09:12.685Z,4.58
2022-12-11T01:11:42.012Z,4.58
2022-12-11T01:14:11.416Z,4.51
2022-12-11T01:16:40.090Z,4.61
2022-12-11T01:19:08.264Z,4.68
2022-12-11T01:21:36.650Z,4.58
2022-12-11T01:24:07.230Z,4.77
2022-12-11T01:26:36.165Z,4.82
2022-12-11T01:29:04.613Z,4.95
2022-12-11T01:31:33.903Z,4.84
2022-12-11T01:34:02.316Z,4.44
2022-12-11T01:36:30.819Z,4.69
2022-12-11T01:38:59.419Z,4.42
2022-12-11T01:41:29.394Z,4.15
2022-12-11T01:44:03.302Z,3.90
2022-12-11T01:46:36.531Z,4.08
2022-12-11T01:49:08.733Z,3.59
2022-12-11T01:51:41.707Z,3.11
2022-12-11T01:54:14.257Z,2.74
2022-12-11T01:56:46.202Z,2.71
2022-12-11T01:59:19.068Z,2.95
2022-12-11T02:01:51.698Z,3.57
2022-12-11T02:04:21.408Z,3.58
2022-12-11T02:06:54.999Z,3.30
2022-12-11T02:09:26.257Z,3.12
2022-12-11T02:12:05.451Z,3.69
2022-12-11T02:14:42.280Z,3.67
2022-12-11T02:17:16.047Z,3.33
2022-12-11T02:19:59.323Z,3.61
2022-12-11T02:22:41.971Z,3.55
2022-12-11T02:25:22.247Z,3.19
2022-12-11T02:27:58.502Z,3.63
2022-12-11T02:30:28.828Z,3.28
2022-12-11T02:32:59.102Z,3.45
2022-12-11T02:35:32.850Z,3.50
2022-12-11T02:38:10.704Z,3.17
2022-12-11T02:40:42.161Z,3.19
2022-12-11T02:43:14.295Z,3.02
2022-12-11T02:45:46.731Z,2.89
2022-12-11T02:48:18.647Z,2.99
2022-12-11T02:50:49.304Z,2.96
2022-12-11T02:53:21.518Z,2.73
2022-12-11T02:55:56.047Z,3.04
2022-12-11T02:58:28.023Z,3.35
2022-12-11T03:00:58.371Z,3.38
2022-12-11T03:03:27.126Z,3.32
2022-12-11T03:05:55.546Z,2.75
2022-12-11T03:08:24.197Z,2.58
2022-12-11T03:10:52.692Z,2.61
2022-12-11T03:13:23.710Z,2.72
2022-12-11T03:16:05.720Z,2.53
2022-12-11T03:18:40.791Z,2.56
2022-12-11T03:21:16.072Z,2.27
2022-12-11T03:23:53.733Z,2.67
2022-12-11T03:26:24.299Z,2.63
2022-12-11T03:29:00.110Z,2.42
2022-12-11T03:31:36.468Z,2.26
2022-12-11T03:34:12.549Z,2.53
2022-12-11T03:36:43.111Z,3.25
2022-12-11T03:39:17.060Z,3.05
2022-12-11T03:41:47.567Z,3.09
2022-12-11T03:44:18.290Z,2.96
2022-12-11T03:46:49.745Z,2.65
2022-12-11T03:49:21.089Z,2.54
2022-12-11T03:51:53.410Z,2.36
2022-12-11T03:54:22.362Z,2.42
2022-12-11T03:56:54.856Z,2.17
2022-12-11T03:59:23.463Z,2.54
2022-12-11T04:01:53.494Z,2.07
2022-12-11T04:04:22.251Z,1.78
2022-12-11T04:06:50.418Z,2.67
2022-12-11T04:09:19.020Z,2.65
2022-12-11T04:11:47.278Z,3.08
2022-12-11T04:14:33.770Z,2.58
2022-12-11T04:17:03.806Z,2.34
2022-12-11T04:19:52.429Z,2.23
2022-12-11T04:22:52.749Z,2.47
2022-12-11T04:25:21.246Z,2.84
2022-12-11T04:27:53.185Z,2.33
2022-12-11T04:30:26.933Z,2.27
2022-12-11T04:32:59.376Z,2.05
2022-12-11T04:35:30.666Z,2.15
2022-12-11T04:37:59.427Z,1.76
2022-12-11T04:40:27.674Z,2.40
2022-12-11T04:42:56.081Z,2.18
2022-12-11T04:45:24.565Z,2.50
2022-12-11T04:47:53.013Z,1.48
2022-12-11T04:50:23.225Z,1.66
2022-12-11T04:52:51.783Z,2.02
2022-12-11T04:55:20.498Z,2.14
2022-12-11T04:57:48.721Z,2.13
2022-12-11T05:00:18.524Z,2.08
2022-12-11T05:02:47.172Z,2.21
2022-12-11T05:05:15.639Z,2.51
2022-12-11T05:08:01.957Z,2.56
2022-12-11T05:10:30.607Z,2.41
2022-12-11T05:12:59.253Z,2.51
2022-12-11T05:15:27.405Z,1.88
2022-12-11T05:17:55.781Z,1.94
2022-12-11T05:20:24.317Z,1.98
2022-12-11T05:22:53.950Z,2.24
2022-12-11T05:25:23.012Z,2.14
2022-12-11T05:27:51.415Z,2.42
2022-12-11T05:30:20.044Z,2.27
2022-12-11T05:32:48.228Z,1.79
2022-12-11T05:35:16.789Z,1.80
2022-12-11T05:37:45.375Z,1.94
2022-12-11T05:40:16.013Z,1.68
2022-12-11T05:42:44.462Z,1.81
2022-12-11T05:45:13.380Z,1.84
2022-12-11T05:47:42.005Z,1.40
2022-12-11T05:50:11.177Z,1.68
2022-12-11T05:52:39.728Z,1.42
2022-12-11T05:55:09.897Z,1.88
2022-12-11T05:57:40.012Z,1.94
2022-12-11T06:00:13.560Z,2.24
2022-12-11T06:02:42.186Z,1.90
2022-12-11T06:05:10.970Z,1.73
2022-12-11T06:07:39.653Z,1.56
2022-12-11T06:10:08.886Z,1.81
2022-12-11T06:12:38.350Z,1.95
2022-12-11T06:15:09.754Z,1.60
2022-12-11T06:17:38.535Z,1.45
2022-12-11T06:20:14.581Z,1.56
2022-12-11T06:22:43.354Z,1.90
2022-12-11T06:25:14.636Z,1.79
2022-12-11T06:27:46.087Z,2.04
2022-12-11T06:30:16.692Z,1.71
2022-12-11T06:32:45.519Z,1.93
2022-12-11T06:35:13.881Z,1.67
2022-12-11T06:37:42.664Z,1.94
2022-12-11T06:40:11.886Z,1.50
2022-12-11T06:42:40.669Z,1.62
2022-12-11T06:45:10.592Z,1.51
2022-12-11T06:47:40.576Z,1.47
2022-12-11T06:50:09.651Z,1.19
2022-12-11T06:52:38.050Z,1.24
2022-12-11T06:55:07.746Z,1.44
2022-12-11T06:57:36.287Z,1.15
2022-12-11T07:00:05.880Z,1.29
2022-12-11T07:02:34.493Z,1.43
2022-12-11T07:05:05.069Z,1.31
2022-12-11T07:07:33.711Z,1.81
2022-12-11T07:10:08.092Z,1.75
2022-12-11T07:12:37.878Z,1.77
2022-12-11T07:15:07.414Z,1.53
2022-12-11T07:17:36.095Z,1.50
2022-12-11T07:20:06.835Z,1.67
2022-12-11T07:22:35.459Z,1.49
2022-12-11T07:25:03.864Z,1.83
2022-12-11T07:27:32.550Z,1.80
2022-12-11T07:30:00.978Z,2.11
2022-12-11T07:32:30.712Z,2.39
2022-12-11T07:34:59.208Z,2.34
2022-12-11T07:37:29.162Z,2.29
2022-12-11T07:39:57.736Z,2.13
2022-12-11T07:42:26.303Z,1.81
2022-12-11T07:44:55.017Z,2.01
2022-12-11T07:47:23.200Z,1.98
2022-12-11T07:49:51.551Z,2.49
2022-12-11T07:52:19.945Z,1.93
2022-12-11T07:54:49.973Z,1.94
2022-12-11T07:57:18.466Z,1.65
2022-12-11T07:59:48.197Z,1.75
2022-12-11T08:02:18.978Z,1.79
2022-12-11T08:04:47.595Z,1.55
2022-12-11T08:07:16.117Z,1.82
2022-12-11T08:09:44.621Z,1.87
2022-12-11T08:12:14.679Z,1.78
2022-12-11T08:14:43.279Z,2.06
2022-12-11T08:17:12.983Z,2.30
2022-12-11T08:19:45.088Z,2.17
2022-12-11T08:22:14.607Z,2.90
2022-12-11T08:24:43.450Z,2.58
2022-12-11T08:27:12.176Z,2.71
2022-12-11T08:29:43.632Z,1.80
2022-12-11T08:32:14.063Z,1.87
2022-12-11T08:34:53.894Z,2.03
2022-12-11T08:37:26.102Z,1.86
2022-12-11T08:40:25.646Z,1.19
2022-12-11T08:43:06.270Z,1.47
2022-12-11T08:45:39.327Z,1.97
2022-12-11T08:48:08.214Z,1.82
2022-12-11T08:50:36.453Z,1.61
2022-12-11T08:53:05.231Z,1.82
2022-12-11T08:55:33.815Z,2.00
2022-12-11T08:58:02.311Z,2.54
2022-12-11T09:00:32.664Z,1.93
2022-12-11T09:03:02.619Z,2.16
2022-12-11T09:05:31.585Z,2.11
2022-12-11T09:08:00.214Z,1.85
2022-12-11T09:10:28.500Z,1.91
2022-12-11T09:12:57.040Z,1.85
2022-12-11T09:15:25.550Z,1.92
2022-12-11T09:17:55.751Z,2.47
2022-12-11T09:20:25.812Z,2.17
2022-12-11T09:22:54.399Z,1.99
2022-12-11T09:25:22.900Z,1.55
2022-12-11T09:27:51.410Z,2.05
2022-12-11T09:30:20.215Z,2.03
2022-12-11T09:32:48.408Z,2.18
2022-12-11T09:35:17.226Z,1.87
2022-12-11T09:37:47.184Z,2.01
2022-12-11T09:40:15.995Z,2.45
2022-12-11T09:42:54.433Z,1.82
2022-12-11T09:45:22.929Z,2.46
2022-12-11T09:47:55.185Z,1.87
2022-12-11T09:50:26.579Z,2.03
2022-12-11T09:53:06.246Z,2.33
2022-12-11T09:55:45.524Z,2.27
2022-12-11T09:58:24.386Z,2.48
2022-12-11T10:01:03.618Z,1.92
2022-12-11T10:03:47.059Z,2.01
2022-12-11T10:06:22.212Z,2.07
2022-12-11T10:09:04.685Z,1.86
2022-12-11T10:11:56.681Z,1.72
2022-12-11T10:14:34.372Z,1.97
2022-12-11T10:17:13.600Z,2.33
2022-12-11T10:19:45.457Z,2.37
2022-12-11T10:22:19.666Z,2.01
2022-12-11T10:25:10.639Z,1.79
2022-12-11T10:27:43.620Z,1.42
2022-12-11T10:30:18.362Z,1.29
2022-12-11T10:32:56.005Z,1.27
2022-12-11T10:35:33.526Z,1.39
2022-12-11T10:38:13.224Z,1.14
2022-12-11T10:40:45.975Z,1.48
2022-12-11T10:43:14.529Z,1.50
2022-12-11T10:45:52.772Z,1.80
2022-12-11T10:48:25.198Z,1.53
2022-12-11T10:51:00.215Z,0.82
2022-12-11T10:53:29.526Z,1.35
2022-12-11T10:56:00.114Z,1.61
2022-12-11T10:58:34.407Z,1.24
2022-12-11T11:01:11.763Z,1.48
2022-12-11T11:03:54.951Z,2.26
2022-12-11T11:06:25.915Z,2.71
2022-12-11T11:08:56.286Z,2.65
2022-12-11T11:11:29.543Z,1.37
2022-12-11T11:14:13.559Z,1.75
2022-12-11T11:16:44.507Z,1.82
2022-12-11T11:19:22.604Z,1.88
2022-12-11T11:21:54.844Z,1.40
2022-12-11T11:24:28.930Z,1.83
2022-12-11T11:27:14.741Z,2.07
2022-12-11T11:29:53.351Z,2.14
2022-12-11T11:32:25.454Z,2.00
2022-12-11T11:34:54.043Z,1.54
2022-12-11T11:37:33.702Z,1.49
2022-12-11T11:40:09.552Z,0.83
2022-12-11T11:42:47.008Z,1.35
2022-12-11T11:45:22.019Z,1.44
2022-12-11T11:48:00.133Z,1.20
2022-12-11T11:50:34.147Z,1.70
2022-12-11T11:53:07.552Z,1.57
2022-12-11T11:55:46.655Z,2.03
2022-12-11T11:58:23.097Z,2.08
2022-12-11T12:00:55.057Z,1.85
2022-12-11T12:03:25.557Z,1.54
2022-12-11T12:05:59.414Z,2.04
2022-12-11T12:08:42.967Z,1.53
2022-12-11T12:11:22.845Z,1.59
2022-12-11T12:14:17.645Z,1.32
2022-12-11T12:17:07.366Z,1.29
2022-12-11T12:19:47.885Z,1.65
2022-12-11T12:22:29.653Z,1.37
2022-12-11T12:25:11.925Z,0.95
2022-12-11T12:27:52.418Z,1.29
2022-12-11T12:30:24.307Z,1.45
2022-12-11T12:33:14.657Z,1.27
2022-12-11T12:36:06.807Z,1.34
2022-12-11T12:38:47.940Z,1.26
2022-12-11T12:41:22.129Z,1.58
2022-12-11T12:44:15.942Z,2.13
2022-12-11T12:46:59.849Z,1.93
2022-12-11T12:49:41.979Z,1.61
2022-12-11T12:52:16.978Z,1.92
2022-12-11T12:55:09.122Z,1.79
2022-12-11T12:57:59.808Z,2.04
2022-12-11T13:03:38.604Z,1.77
2022-12-11T13:06:10.668Z,1.15
2022-12-11T13:08:51.933Z,1.76
2022-12-11T13:11:47.883Z,1.58
2022-12-11T13:14:41.203Z,1.26
2022-12-11T13:22:25.758Z,1.22
2022-12-11T13:25:02.056Z,1.74
2022-12-11T13:27:40.352Z,1.60
2022-12-11T13:30:23.637Z,1.44
2022-12-11T13:33:17.402Z,1.77
2022-12-11T13:35:48.300Z,1.35
2022-12-11T13:38:20.723Z,1.57
2022-12-11T13:40:54.481Z,1.70
2022-12-11T13:43:27.526Z,1.84
2022-12-11T13:45:59.760Z,1.14
2022-12-11T13:48:30.635Z,1.60
2022-12-11T13:51:01.727Z,0.70
2022-12-11T13:53:31.136Z,0.87
2022-12-11T13:56:02.926Z,1.59
2022-12-11T13:58:35.974Z,1.12
2022-12-11T14:01:12.928Z,0.83
2022-12-11T14:03:44.900Z,1.48
2022-12-11T14:06:19.123Z,1.37
2022-12-11T14:08:51.803Z,1.22
2022-12-11T14:11:28.231Z,0.56
2022-12-11T14:13:59.563Z,1.01
2022-12-11T14:16:28.791Z,0.99
2022-12-11T14:19:02.878Z,1.40
2022-12-11T14:21:35.793Z,1.42
2022-12-11T14:24:06.793Z,1.74
2022-12-11T14:26:38.727Z,0.75
2022-12-11T14:29:08.185Z,0.93
2022-12-11T14:31:39.779Z,0.98
2022-12-11T14:34:14.890Z,1.65
2022-12-11T14:36:47.161Z,1.41
2022-12-11T14:39:25.115Z,1.55
2022-12-11T14:41:59.678Z,1.15
2022-12-11T14:44:36.775Z,1.49
2022-12-11T14:47:11.675Z,1.72
2022-12-11T14:49:48.684Z,1.21
2022-12-11T14:52:25.324Z,1.47
2022-12-11T14:54:58.412Z,0.98
2022-12-11T14:57:32.151Z,1.56
2022-12-11T15:00:01.144Z,1.50
2022-12-11T15:02:33.485Z,1.00
2022-12-11T15:05:19.209Z,1.45
2022-12-11T15:08:00.526Z,1.15
2022-12-11T15:10:36.090Z,1.63
2022-12-11T15:13:06.102Z,1.82
2022-12-11T15:15:47.431Z,1.73
2022-12-11T15:18:25.938Z,1.19
2022-12-11T15:21:00.428Z,1.47
2022-12-11T15:23:36.452Z,1.37
2022-12-11T15:26:08.198Z,1.58
2022-12-11T15:28:40.889Z,1.73
2022-12-11T15:31:26.613Z,1.57
2022-12-11T15:33:55.913Z,1.46
2022-12-11T15:36:27.637Z,1.55
2022-12-11T15:38:58.309Z,0.93
2022-12-11T15:41:27.228Z,0.68
2022-12-11T15:43:59.247Z,0.80
2022-12-11T15:46:28.496Z,0.96
2022-12-11T15:48:58.863Z,0.95
2022-12-11T15:51:27.775Z,1.51
2022-12-11T15:53:58.855Z,1.29
2022-12-11T15:56:28.069Z,1.37
2022-12-11T15:59:18.606Z,1.63
2022-12-11T16:01:47.766Z,2.00
2022-12-11T16:04:17.947Z,1.38
2022-12-11T16:06:49.266Z,1.86
2022-12-11T16:09:20.060Z,1.54
2022-12-11T16:11:48.865Z,1.74
2022-12-11T16:14:21.268Z,1.50
2022-12-11T16:16:53.032Z,1.85
2022-12-11T16:19:21.712Z,1.29
2022-12-11T16:22:04.807Z,1.53
2022-12-11T16:24:39.797Z,1.15
2022-12-11T16:27:10.755Z,1.74
2022-12-11T16:29:41.324Z,1.77
2022-12-11T16:32:35.605Z,2.38
2022-12-11T16:35:07.655Z,2.28
2022-12-11T16:37:38.564Z,1.85
2022-12-11T16:40:14.790Z,1.28
2022-12-11T16:42:48.521Z,1.91
2022-12-11T16:45:25.371Z,1.75
2022-12-11T16:48:08.913Z,1.26
2022-12-11T16:50:40.628Z,1.97
2022-12-11T16:53:17.712Z,1.72
2022-12-11T16:55:52.074Z,1.60
2022-12-11T16:58:29.788Z,1.75
2022-12-11T17:01:05.030Z,2.04
2022-12-11T17:03:33.787Z,1.95
2022-12-11T17:06:02.378Z,2.16
2022-12-11T17:08:30.806Z,2.03
2022-12-11T17:11:01.051Z,1.63
2022-12-11T17:13:35.697Z,1.26
2022-12-11T17:16:06.866Z,2.09
2022-12-11T17:18:41.077Z,2.24
2022-12-11T17:21:13.780Z,1.61
2022-12-11T17:23:42.908Z,1.61
2022-12-11T17:26:13.364Z,1.87
2022-12-11T17:28:46.744Z,1.95
2022-12-11T17:31:21.752Z,1.76
2022-12-11T17:34:23.860Z,0.99
2022-12-11T17:36:54.234Z,1.62
2022-12-11T17:39:22.696Z,1.73
2022-12-11T17:41:53.412Z,1.92
2022-12-11T17:44:22.922Z,1.95
2022-12-11T17:46:53.714Z,1.93
2022-12-11T17:49:22.413Z,1.97
2022-12-11T17:51:51.533Z,1.55
2022-12-11T17:54:25.892Z,1.37
2022-12-11T17:56:55.961Z,1.47
2022-12-11T17:59:25.737Z,1.77
2022-12-11T18:01:58.599Z,2.18
2022-12-11T18:04:27.303Z,2.23
2022-12-11T18:06:58.362Z,2.25
2022-12-11T18:09:30.006Z,1.57
2022-12-11T18:12:00.649Z,1.50
2022-12-11T18:14:32.583Z,1.63
2022-12-11T18:17:12.594Z,2.16
2022-12-11T18:19:56.119Z,2.20
2022-12-11T18:22:25.604Z,2.02
2022-12-11T18:24:58.582Z,1.40
2022-12-11T18:27:51.813Z,1.60
2022-12-11T18:30:32.259Z,2.29
2022-12-11T18:33:06.037Z,2.27
2022-12-11T18:35:36.912Z,2.65
2022-12-11T18:38:08.508Z,2.16
2022-12-11T18:40:37.398Z,2.24
2022-12-11T18:43:08.184Z,2.39
2022-12-11T18:45:36.953Z,2.06
2022-12-11T18:48:06.527Z,2.66
2022-12-11T18:50:35.548Z,2.49
2022-12-11T18:53:06.031Z,2.65
2022-12-11T18:55:45.611Z,2.30
2022-12-11T18:58:16.784Z,3.20
2022-12-11T19:00:48.242Z,3.33
2022-12-11T19:03:17.060Z,3.72
2022-12-11T19:05:45.241Z,3.76
2022-12-11T19:08:16.132Z,3.64
2022-12-11T19:10:52.840Z,3.63
2022-12-11T19:13:22.931Z,3.47
2022-12-11T19:15:51.675Z,3.40
2022-12-11T19:18:20.227Z,3.67
2022-12-11T19:20:58.019Z,3.27
2022-12-11T19:23:34.086Z,3.18
2022-12-11T19:26:22.538Z,3.28
2022-12-11T19:29:49.678Z,3.20
2022-12-11T19:32:31.972Z,2.96
2022-12-11T19:35:59.978Z,2.87
2022-12-11T19:38:55.325Z,2.20
2022-12-11T19:41:37.918Z,2.40
2022-12-11T19:44:19.931Z,3.06
2022-12-11T19:47:04.312Z,3.04
2022-12-11T19:50:31.437Z,2.67
2022-12-11T19:53:15.641Z,2.53
2022-12-11T19:55:53.591Z,2.72
2022-12-11T19:58:22.432Z,3.51
2022-12-11T20:01:09.429Z,3.20
2022-12-11T20:04:00.198Z,2.98
2022-12-11T20:06:41.007Z,2.88
2022-12-11T20:09:19.671Z,2.43
2022-12-11T20:11:50.978Z,3.12
2022-12-11T20:14:22.999Z,3.29
2022-12-11T20:17:10.879Z,3.14
2022-12-11T20:19:48.053Z,2.68
2022-12-11T20:22:24.431Z,3.25
2022-12-11T20:24:56.135Z,3.42
2022-12-11T20:27:31.541Z,3.15
2022-12-11T20:30:32.829Z,3.66
2022-12-11T20:32:53.095Z,3.15
2022-12-11T20:35:35.033Z,3.26
2022-12-11T20:38:05.562Z,3.25
2022-12-11T20:40:39.672Z,3.25
2022-12-11T20:43:08.407Z,2.70
2022-12-11T20:45:48.097Z,3.53
2022-12-11T20:48:17.168Z,3.53
2022-12-11T20:50:56.483Z,3.26
2022-12-11T20:53:35.988Z,3.71
2022-12-11T20:56:12.446Z,3.02
2022-12-11T20:58:41.335Z,3.34
2022-12-11T21:01:16.060Z,2.88
2022-12-11T21:03:45.268Z,3.35
2022-12-11T21:06:23.858Z,3.44
2022-12-11T21:08:54.309Z,3.32
2022-12-11T21:11:25.862Z,3.33
2022-12-11T21:13:54.753Z,3.30
2022-12-11T21:16:24.864Z,3.45
2022-12-11T21:18:56.513Z,3.22
2022-12-11T21:21:27.679Z,3.23
2022-12-11T21:24:13.784Z,3.31
2022-12-11T21:26:44.939Z,3.24
2022-12-11T21:29:14.034Z,3.08
2022-12-11T21:31:49.179Z,3.40
2022-12-11T21:34:25.352Z,3.41
2022-12-11T21:36:58.570Z,3.48
2022-12-11T21:39:29.276Z,3.44
2022-12-11T21:42:00.716Z,3.34
2022-12-11T21:47:19.869Z,3.28
2022-12-11T21:49:48.702Z,3.40
2022-12-11T21:52:18.399Z,3.42
2022-12-11T21:54:52.278Z,3.55
2022-12-11T21:57:28.981Z,3.57
2022-12-11T22:00:00.751Z,3.70
2022-12-11T22:02:52.759Z,3.50
2022-12-11T22:05:21.329Z,3.59
2022-12-11T22:07:51.307Z,3.50
2022-12-11T22:10:20.181Z,3.57
2022-12-11T22:12:48.785Z,3.34
2022-12-11T22:15:17.546Z,3.65
2022-12-11T22:17:45.709Z,3.58
2022-12-11T22:20:16.571Z,3.58
2022-12-11T22:22:48.250Z,3.41
2022-12-11T22:25:18.886Z,3.42
2022-12-11T22:27:47.673Z,3.49
2022-12-11T22:30:20.056Z,3.19
2022-12-11T22:32:58.284Z,3.52
2022-12-11T22:35:27.657Z,3.54
2022-12-11T22:38:17.227Z,3.58
2022-12-11T22:40:48.094Z,3.54
2022-12-11T22:43:17.561Z,3.47
2022-12-11T22:45:48.183Z,3.54
2022-12-11T22:48:17.202Z,3.56
2022-12-11T22:50:46.239Z,3.56
2022-12-11T22:53:15.044Z,3.75
2022-12-11T22:55:43.662Z,3.71
2022-12-11T22:58:18.573Z,3.82
2022-12-11T23:00:50.191Z,3.76
2022-12-11T23:03:21.253Z,3.58
2022-12-11T23:05:50.274Z,3.74
2022-12-11T23:08:19.720Z,3.57
2022-12-11T23:10:48.361Z,3.63
2022-12-11T23:13:18.457Z,3.65
2022-12-11T23:15:47.151Z,3.64
2022-12-11T23:18:15.919Z,3.65
2022-12-11T23:20:45.081Z,3.79
2022-12-11T23:23:14.594Z,3.62
2022-12-11T23:25:46.082Z,3.70
2022-12-11T23:28:17.138Z,3.89
2022-12-11T23:30:47.223Z,3.74
2022-12-11T23:33:17.093Z,3.79
2022-12-11T23:35:56.878Z,3.73
2022-12-11T23:38:32.516Z,3.75
2022-12-11T23:41:11.964Z,3.74
2022-12-11T23:43:48.697Z,3.83
2022-12-11T23:46:45.544Z,3.63
2022-12-11T23:49:18.793Z,3.94
2022-12-11T23:52:04.516Z,3.77
2022-12-11T23:54:43.270Z,3.90
2022-12-11T23:57:19.584Z,3.94
2022-12-11T23:59:48.563Z,3.83
